sensor_id;sensor_type;location;lat;lon;timestamp;temperature;humidity
21906;DHT22;11117;48.644;9.006;2023-05-07T00:01:24;13.00;99.90
21906;DHT22;11117;48.644;9.006;2023-05-07T00:03:49;13.00;99.90
21906;DHT22;11117;48.644;9.006;2023-05-07T00:06:15;13.00;99.90
21906;DHT22;11117;48.644;9.006;2023-05-07T00:08:40;13.00;99.90
21906;DHT22;11117;48.644;9.006;2023-05-07T00:11:06;12.90;99.90
21906;DHT22;11117;48.644;9.006;2023-05-07T00:13:32;13.00;99.90
21906;DHT22;11117;48.644;9.006;2023-05-07T00:15:58;13.00;99.90
21906;DHT22;11117;48.644;9.006;2023-05-07T00:18:23;12.90;99.90
21906;DHT22;11117;48.644;9.006;2023-05-07T00:20:49;12.90;99.90
21906;DHT22;11117;48.644;9.006;2023-05-07T00:23:14;12.90;99.90
21906;DHT22;11117;48.644;9.006;2023-05-07T00:25:40;13.00;99.90
21906;DHT22;11117;48.644;9.006;2023-05-07T00:28:05;13.00;99.90
21906;DHT22;11117;48.644;9.006;2023-05-07T00:30:31;13.00;99.90
21906;DHT22;11117;48.644;9.006;2023-05-07T00:32:56;13.00;99.90
21906;DHT22;11117;48.644;9.006;2023-05-07T00:35:22;12.90;99.90
21906;DHT22;11117;48.644;9.006;2023-05-07T00:37:47;12.90;99.90
21906;DHT22;11117;48.644;9.006;2023-05-07T00:40:13;12.90;99.90
21906;DHT22;11117;48.644;9.006;2023-05-07T00:42:38;12.90;99.90
21906;DHT22;11117;48.644;9.006;2023-05-07T00:45:04;12.90;99.90
21906;DHT22;11117;48.644;9.006;2023-05-07T00:47:30;12.80;99.90
21906;DHT22;11117;48.644;9.006;2023-05-07T00:49:57;12.90;99.90
21906;DHT22;11117;48.644;9.006;2023-05-07T00:52:25;12.80;99.90
21906;DHT22;11117;48.644;9.006;2023-05-07T00:54:51;12.80;99.90
21906;DHT22;11117;48.644;9.006;2023-05-07T00:57:17;12.90;99.90
21906;DHT22;11117;48.644;9.006;2023-05-07T00:59:43;12.80;99.90
21906;DHT22;11117;48.644;9.006;2023-05-07T01:02:08;12.90;99.90
21906;DHT22;11117;48.644;9.006;2023-05-07T01:04:34;12.90;99.90
21906;DHT22;11117;48.644;9.006;2023-05-07T01:07:00;12.90;99.90
21906;DHT22;11117;48.644;9.006;2023-05-07T01:09:27;12.80;99.90
21906;DHT22;11117;48.644;9.006;2023-05-07T01:11:53;12.70;99.90
21906;DHT22;11117;48.644;9.006;2023-05-07T01:14:20;12.70;99.90
21906;DHT22;11117;48.644;9.006;2023-05-07T01:16:46;12.70;99.90
21906;DHT22;11117;48.644;9.006;2023-05-07T01:19:12;12.60;99.90
21906;DHT22;11117;48.644;9.006;2023-05-07T01:21:38;12.60;99.90
21906;DHT22;11117;48.644;9.006;2023-05-07T01:24:04;12.70;99.90
21906;DHT22;11117;48.644;9.006;2023-05-07T01:26:30;12.70;99.90
21906;DHT22;11117;48.644;9.006;2023-05-07T01:28:56;12.70;99.90
21906;DHT22;11117;48.644;9.006;2023-05-07T01:31:23;12.70;99.90
21906;DHT22;11117;48.644;9.006;2023-05-07T01:33:51;12.70;99.90
21906;DHT22;11117;48.644;9.006;2023-05-07T01:36:17;12.60;99.90
21906;DHT22;11117;48.644;9.006;2023-05-07T01:38:44;12.60;99.90
21906;DHT22;11117;48.644;9.006;2023-05-07T01:41:12;12.60;99.90
21906;DHT22;11117;48.644;9.006;2023-05-07T01:43:37;12.50;99.90
21906;DHT22;11117;48.644;9.006;2023-05-07T01:46:03;12.50;99.90
21906;DHT22;11117;48.644;9.006;2023-05-07T01:48:29;12.40;99.90
21906;DHT22;11117;48.644;9.006;2023-05-07T01:50:56;12.50;99.90
21906;DHT22;11117;48.644;9.006;2023-05-07T01:53:21;12.40;99.90
21906;DHT22;11117;48.644;9.006;2023-05-07T01:55:47;12.40;99.90
21906;DHT22;11117;48.644;9.006;2023-05-07T01:58:12;12.40;99.90
21906;DHT22;11117;48.644;9.006;2023-05-07T02:00:39;12.30;99.90
21906;DHT22;11117;48.644;9.006;2023-05-07T02:03:04;12.30;99.90
21906;DHT22;11117;48.644;9.006;2023-05-07T02:05:30;12.20;99.90
21906;DHT22;11117;48.644;9.006;2023-05-07T02:07:55;12.20;99.90
21906;DHT22;11117;48.644;9.006;2023-05-07T02:10:21;12.20;99.90
21906;DHT22;11117;48.644;9.006;2023-05-07T02:12:46;12.20;99.90
21906;DHT22;11117;48.644;9.006;2023-05-07T02:15:12;12.20;99.90
21906;DHT22;11117;48.644;9.006;2023-05-07T02:17:58;12.20;99.90
21906;DHT22;11117;48.644;9.006;2023-05-07T02:20:24;12.10;99.90
21906;DHT22;11117;48.644;9.006;2023-05-07T02:22:49;12.10;99.90
21906;DHT22;11117;48.644;9.006;2023-05-07T02:25:15;12.10;99.90
21906;DHT22;11117;48.644;9.006;2023-05-07T02:27:40;12.00;99.90
21906;DHT22;11117;48.644;9.006;2023-05-07T02:30:06;12.00;99.90
21906;DHT22;11117;48.644;9.006;2023-05-07T02:32:32;12.00;99.90
21906;DHT22;11117;48.644;9.006;2023-05-07T02:34:57;11.90;99.90
21906;DHT22;11117;48.644;9.006;2023-05-07T02:37:23;11.90;99.90
21906;DHT22;11117;48.644;9.006;2023-05-07T02:39:48;11.80;99.90
21906;DHT22;11117;48.644;9.006;2023-05-07T02:42:14;11.70;99.90
21906;DHT22;11117;48.644;9.006;2023-05-07T02:44:39;11.60;99.90
21906;DHT22;11117;48.644;9.006;2023-05-07T02:47:05;11.60;99.90
21906;DHT22;11117;48.644;9.006;2023-05-07T02:49:30;11.40;99.90
21906;DHT22;11117;48.644;9.006;2023-05-07T02:51:57;11.40;99.90
21906;DHT22;11117;48.644;9.006;2023-05-07T02:54:23;11.30;99.90
21906;DHT22;11117;48.644;9.006;2023-05-07T02:56:48;11.30;99.90
21906;DHT22;11117;48.644;9.006;2023-05-07T02:59:14;11.30;99.90
21906;DHT22;11117;48.644;9.006;2023-05-07T03:01:39;11.30;99.90
21906;DHT22;11117;48.644;9.006;2023-05-07T03:04:05;11.30;99.90
21906;DHT22;11117;48.644;9.006;2023-05-07T03:06:30;11.30;99.90
21906;DHT22;11117;48.644;9.006;2023-05-07T03:08:56;11.30;99.90
21906;DHT22;11117;48.644;9.006;2023-05-07T03:11:21;11.30;99.90
21906;DHT22;11117;48.644;9.006;2023-05-07T03:13:47;11.30;99.90
21906;DHT22;11117;48.644;9.006;2023-05-07T03:16:14;11.30;99.90
21906;DHT22;11117;48.644;9.006;2023-05-07T03:18:39;11.40;99.90
21906;DHT22;11117;48.644;9.006;2023-05-07T03:21:05;11.40;99.90
21906;DHT22;11117;48.644;9.006;2023-05-07T03:23:30;11.30;99.90
21906;DHT22;11117;48.644;9.006;2023-05-07T03:25:56;11.40;99.90
21906;DHT22;11117;48.644;9.006;2023-05-07T03:28:21;11.40;99.90
21906;DHT22;11117;48.644;9.006;2023-05-07T03:30:47;11.30;99.90
21906;DHT22;11117;48.644;9.006;2023-05-07T03:33:12;11.20;99.90
21906;DHT22;11117;48.644;9.006;2023-05-07T03:35:38;11.20;99.90
21906;DHT22;11117;48.644;9.006;2023-05-07T03:38:03;11.20;99.90
21906;DHT22;11117;48.644;9.006;2023-05-07T03:40:29;11.10;99.90
21906;DHT22;11117;48.644;9.006;2023-05-07T03:42:55;11.10;99.90
21906;DHT22;11117;48.644;9.006;2023-05-07T03:45:20;11.00;99.90
21906;DHT22;11117;48.644;9.006;2023-05-07T03:47:46;10.90;99.90
21906;DHT22;11117;48.644;9.006;2023-05-07T03:50:11;10.80;99.90
21906;DHT22;11117;48.644;9.006;2023-05-07T03:52:37;10.70;99.90
21906;DHT22;11117;48.644;9.006;2023-05-07T03:55:02;10.70;99.90
21906;DHT22;11117;48.644;9.006;2023-05-07T03:57:28;10.70;99.90
21906;DHT22;11117;48.644;9.006;2023-05-07T03:59:53;10.70;99.90
21906;DHT22;11117;48.644;9.006;2023-05-07T04:02:19;10.70;99.90
21906;DHT22;11117;48.644;9.006;2023-05-07T04:04:44;10.80;99.90
21906;DHT22;11117;48.644;9.006;2023-05-07T04:07:10;10.80;99.90
21906;DHT22;11117;48.644;9.006;2023-05-07T04:09:36;10.80;99.90
21906;DHT22;11117;48.644;9.006;2023-05-07T04:12:01;10.90;99.90
21906;DHT22;11117;48.644;9.006;2023-05-07T04:14:27;10.90;99.90
21906;DHT22;11117;48.644;9.006;2023-05-07T04:16:52;10.90;99.90
21906;DHT22;11117;48.644;9.006;2023-05-07T04:19:18;10.90;99.90
21906;DHT22;11117;48.644;9.006;2023-05-07T04:21:43;10.90;99.90
21906;DHT22;11117;48.644;9.006;2023-05-07T04:24:09;11.00;99.90
21906;DHT22;11117;48.644;9.006;2023-05-07T04:26:34;11.10;99.90
21906;DHT22;11117;48.644;9.006;2023-05-07T04:29:00;11.10;99.90
21906;DHT22;11117;48.644;9.006;2023-05-07T04:31:25;11.10;99.90
21906;DHT22;11117;48.644;9.006;2023-05-07T04:33:51;11.20;99.90
21906;DHT22;11117;48.644;9.006;2023-05-07T04:36:16;11.20;99.90
21906;DHT22;11117;48.644;9.006;2023-05-07T04:38:42;11.20;99.90
21906;DHT22;11117;48.644;9.006;2023-05-07T04:41:32;11.30;99.90
21906;DHT22;11117;48.644;9.006;2023-05-07T04:43:58;11.40;99.90
21906;DHT22;11117;48.644;9.006;2023-05-07T04:46:23;11.40;99.90
21906;DHT22;11117;48.644;9.006;2023-05-07T04:48:49;11.30;99.90
21906;DHT22;11117;48.644;9.006;2023-05-07T04:51:15;11.30;99.90
21906;DHT22;11117;48.644;9.006;2023-05-07T04:53:40;11.30;99.90
21906;DHT22;11117;48.644;9.006;2023-05-07T04:56:07;11.50;99.90
21906;DHT22;11117;48.644;9.006;2023-05-07T04:58:32;11.70;99.90
21906;DHT22;11117;48.644;9.006;2023-05-07T05:00:58;11.80;99.90
21906;DHT22;11117;48.644;9.006;2023-05-07T05:03:24;11.90;99.90
21906;DHT22;11117;48.644;9.006;2023-05-07T05:05:51;12.10;99.90
21906;DHT22;11117;48.644;9.006;2023-05-07T05:08:16;12.40;99.90
21906;DHT22;11117;48.644;9.006;2023-05-07T05:10:42;12.70;99.90
21906;DHT22;11117;48.644;9.006;2023-05-07T05:13:07;13.10;99.90
21906;DHT22;11117;48.644;9.006;2023-05-07T05:15:33;13.50;99.90
21906;DHT22;11117;48.644;9.006;2023-05-07T05:17:58;13.90;99.90
21906;DHT22;11117;48.644;9.006;2023-05-07T05:20:24;14.20;99.90
21906;DHT22;11117;48.644;9.006;2023-05-07T05:22:49;14.10;99.90
21906;DHT22;11117;48.644;9.006;2023-05-07T05:25:15;14.50;99.90
21906;DHT22;11117;48.644;9.006;2023-05-07T05:27:41;14.90;99.90
21906;DHT22;11117;48.644;9.006;2023-05-07T05:30:06;15.00;99.90
21906;DHT22;11117;48.644;9.006;2023-05-07T05:32:32;15.20;99.90
21906;DHT22;11117;48.644;9.006;2023-05-07T05:34:58;15.50;99.90
21906;DHT22;11117;48.644;9.006;2023-05-07T05:37:23;15.50;99.90
21906;DHT22;11117;48.644;9.006;2023-05-07T05:39:49;15.60;99.90
21906;DHT22;11117;48.644;9.006;2023-05-07T05:42:14;15.60;99.90
21906;DHT22;11117;48.644;9.006;2023-05-07T05:44:40;15.80;99.90
21906;DHT22;11117;48.644;9.006;2023-05-07T05:47:05;16.10;99.90
21906;DHT22;11117;48.644;9.006;2023-05-07T05:49:31;16.40;99.90
21906;DHT22;11117;48.644;9.006;2023-05-07T05:51:56;16.70;99.90
21906;DHT22;11117;48.644;9.006;2023-05-07T05:54:22;17.00;99.90
21906;DHT22;11117;48.644;9.006;2023-05-07T05:56:47;17.20;99.90
21906;DHT22;11117;48.644;9.006;2023-05-07T05:59:13;17.40;99.90
21906;DHT22;11117;48.644;9.006;2023-05-07T06:01:39;17.60;99.90
21906;DHT22;11117;48.644;9.006;2023-05-07T06:04:05;17.70;99.90
21906;DHT22;11117;48.644;9.006;2023-05-07T06:06:30;17.90;99.90
21906;DHT22;11117;48.644;9.006;2023-05-07T06:08:56;18.20;99.90
21906;DHT22;11117;48.644;9.006;2023-05-07T06:11:21;18.40;99.90
21906;DHT22;11117;48.644;9.006;2023-05-07T06:13:47;18.60;99.90
21906;DHT22;11117;48.644;9.006;2023-05-07T06:16:15;18.60;99.90
21906;DHT22;11117;48.644;9.006;2023-05-07T06:18:40;18.70;99.90
21906;DHT22;11117;48.644;9.006;2023-05-07T06:21:07;18.80;99.90
21906;DHT22;11117;48.644;9.006;2023-05-07T06:23:32;18.80;99.90
21906;DHT22;11117;48.644;9.006;2023-05-07T06:25:58;18.80;99.90
21906;DHT22;11117;48.644;9.006;2023-05-07T06:28:23;18.90;99.90
21906;DHT22;11117;48.644;9.006;2023-05-07T06:30:49;18.90;99.90
21906;DHT22;11117;48.644;9.006;2023-05-07T06:33:14;18.80;99.90
21906;DHT22;11117;48.644;9.006;2023-05-07T06:35:40;18.90;99.90
21906;DHT22;11117;48.644;9.006;2023-05-07T06:38:05;18.90;99.90
21906;DHT22;11117;48.644;9.006;2023-05-07T06:40:31;18.90;99.90
21906;DHT22;11117;48.644;9.006;2023-05-07T06:42:56;18.90;99.90
21906;DHT22;11117;48.644;9.006;2023-05-07T06:45:22;18.90;99.90
21906;DHT22;11117;48.644;9.006;2023-05-07T06:47:47;18.90;99.90
21906;DHT22;11117;48.644;9.006;2023-05-07T06:50:13;19.00;99.90
21906;DHT22;11117;48.644;9.006;2023-05-07T06:52:39;19.00;99.90
21906;DHT22;11117;48.644;9.006;2023-05-07T06:55:05;19.00;99.90
21906;DHT22;11117;48.644;9.006;2023-05-07T06:57:30;19.10;99.90
21906;DHT22;11117;48.644;9.006;2023-05-07T06:59:56;19.20;99.90
21906;DHT22;11117;48.644;9.006;2023-05-07T07:02:21;19.30;99.90
21906;DHT22;11117;48.644;9.006;2023-05-07T07:04:47;19.40;99.90
21906;DHT22;11117;48.644;9.006;2023-05-07T07:07:13;19.50;99.90
21906;DHT22;11117;48.644;9.006;2023-05-07T07:09:38;19.70;99.90
21906;DHT22;11117;48.644;9.006;2023-05-07T07:12:04;19.90;99.90
21906;DHT22;11117;48.644;9.006;2023-05-07T07:14:29;19.90;99.90
21906;DHT22;11117;48.644;9.006;2023-05-07T07:16:55;20.10;99.90
21906;DHT22;11117;48.644;9.006;2023-05-07T07:19:20;20.30;99.90
21906;DHT22;11117;48.644;9.006;2023-05-07T07:21:46;20.50;99.90
21906;DHT22;11117;48.644;9.006;2023-05-07T07:24:13;20.70;99.90
21906;DHT22;11117;48.644;9.006;2023-05-07T07:26:38;20.90;99.90
21906;DHT22;11117;48.644;9.006;2023-05-07T07:29:04;20.90;99.90
21906;DHT22;11117;48.644;9.006;2023-05-07T07:31:29;21.10;99.90
21906;DHT22;11117;48.644;9.006;2023-05-07T07:33:55;21.30;99.90
21906;DHT22;11117;48.644;9.006;2023-05-07T07:36:20;21.50;99.90
21906;DHT22;11117;48.644;9.006;2023-05-07T07:38:46;21.60;99.90
21906;DHT22;11117;48.644;9.006;2023-05-07T07:41:14;21.40;99.90
21906;DHT22;11117;48.644;9.006;2023-05-07T07:43:39;21.30;99.90
21906;DHT22;11117;48.644;9.006;2023-05-07T07:46:05;21.50;99.90
21906;DHT22;11117;48.644;9.006;2023-05-07T07:48:30;21.30;99.90
21906;DHT22;11117;48.644;9.006;2023-05-07T07:50:56;21.20;99.90
21906;DHT22;11117;48.644;9.006;2023-05-07T07:53:21;21.30;99.90
21906;DHT22;11117;48.644;9.006;2023-05-07T07:55:47;21.40;99.90
21906;DHT22;11117;48.644;9.006;2023-05-07T07:58:12;21.50;99.90
21906;DHT22;11117;48.644;9.006;2023-05-07T08:00:38;21.90;99.90
21906;DHT22;11117;48.644;9.006;2023-05-07T08:03:04;22.20;99.90
21906;DHT22;11117;48.644;9.006;2023-05-07T08:05:29;22.30;99.90
21906;DHT22;11117;48.644;9.006;2023-05-07T08:07:55;22.20;99.90
21906;DHT22;11117;48.644;9.006;2023-05-07T08:10:21;22.10;99.90
21906;DHT22;11117;48.644;9.006;2023-05-07T08:12:50;22.30;99.90
21906;DHT22;11117;48.644;9.006;2023-05-07T08:15:16;22.80;99.90
21906;DHT22;11117;48.644;9.006;2023-05-07T08:17:42;23.20;99.90
21906;DHT22;11117;48.644;9.006;2023-05-07T08:20:08;23.60;99.90
21906;DHT22;11117;48.644;9.006;2023-05-07T08:22:37;23.50;99.90
21906;DHT22;11117;48.644;9.006;2023-05-07T08:25:03;23.70;99.90
21906;DHT22;11117;48.644;9.006;2023-05-07T08:27:28;23.80;99.90
21906;DHT22;11117;48.644;9.006;2023-05-07T08:29:54;23.70;99.90
21906;DHT22;11117;48.644;9.006;2023-05-07T08:32:20;23.80;99.90
21906;DHT22;11117;48.644;9.006;2023-05-07T08:34:46;23.50;99.90
21906;DHT22;11117;48.644;9.006;2023-05-07T08:37:12;23.50;99.10
21906;DHT22;11117;48.644;9.006;2023-05-07T08:39:38;23.50;99.40
21906;DHT22;11117;48.644;9.006;2023-05-07T08:42:04;23.50;99.30
21906;DHT22;11117;48.644;9.006;2023-05-07T08:44:35;23.60;99.60
21906;DHT22;11117;48.644;9.006;2023-05-07T08:47:01;23.30;99.00
21906;DHT22;11117;48.644;9.006;2023-05-07T08:49:28;23.10;99.10
21906;DHT22;11117;48.644;9.006;2023-05-07T08:51:54;23.10;99.20
21906;DHT22;11117;48.644;9.006;2023-05-07T08:54:21;23.00;99.60
21906;DHT22;11117;48.644;9.006;2023-05-07T08:56:47;23.20;99.20
21906;DHT22;11117;48.644;9.006;2023-05-07T08:59:12;23.40;99.40
21906;DHT22;11117;48.644;9.006;2023-05-07T09:01:38;23.60;99.20
21906;DHT22;11117;48.644;9.006;2023-05-07T09:04:04;23.50;99.00
21906;DHT22;11117;48.644;9.006;2023-05-07T09:06:30;23.60;99.00
21906;DHT22;11117;48.644;9.006;2023-05-07T09:08:55;23.60;98.60
21906;DHT22;11117;48.644;9.006;2023-05-07T09:11:24;23.70;99.00
21906;DHT22;11117;48.644;9.006;2023-05-07T09:13:54;23.80;99.30
21906;DHT22;11117;48.644;9.006;2023-05-07T09:16:24;23.70;99.00
21906;DHT22;11117;48.644;9.006;2023-05-07T09:18:54;23.90;98.90
21906;DHT22;11117;48.644;9.006;2023-05-07T09:21:20;23.90;98.20
21906;DHT22;11117;48.644;9.006;2023-05-07T09:23:50;24.00;98.10
21906;DHT22;11117;48.644;9.006;2023-05-07T09:26:15;24.00;98.20
21906;DHT22;11117;48.644;9.006;2023-05-07T09:28:42;24.00;98.60
21906;DHT22;11117;48.644;9.006;2023-05-07T09:31:09;23.90;98.20
21906;DHT22;11117;48.644;9.006;2023-05-07T09:33:34;24.10;97.80
21906;DHT22;11117;48.644;9.006;2023-05-07T09:36:05;24.00;97.80
21906;DHT22;11117;48.644;9.006;2023-05-07T09:38:35;24.10;97.60
21906;DHT22;11117;48.644;9.006;2023-05-07T09:41:09;24.10;97.70
21906;DHT22;11117;48.644;9.006;2023-05-07T09:43:36;24.20;97.10
21906;DHT22;11117;48.644;9.006;2023-05-07T09:46:12;24.30;98.00
21906;DHT22;11117;48.644;9.006;2023-05-07T09:48:39;24.40;97.30
21906;DHT22;11117;48.644;9.006;2023-05-07T09:51:25;24.30;97.00
21906;DHT22;11117;48.644;9.006;2023-05-07T09:53:52;24.30;97.20
21906;DHT22;11117;48.644;9.006;2023-05-07T09:56:21;24.30;96.40
21906;DHT22;11117;48.644;9.006;2023-05-07T09:58:49;24.40;96.40
21906;DHT22;11117;48.644;9.006;2023-05-07T10:01:17;24.50;96.00
21906;DHT22;11117;48.644;9.006;2023-05-07T10:03:43;24.40;96.10
21906;DHT22;11117;48.644;9.006;2023-05-07T10:06:12;24.30;96.10
21906;DHT22;11117;48.644;9.006;2023-05-07T10:08:38;24.40;96.60
21906;DHT22;11117;48.644;9.006;2023-05-07T10:11:04;24.50;96.10
21906;DHT22;11117;48.644;9.006;2023-05-07T10:13:31;24.40;95.70
21906;DHT22;11117;48.644;9.006;2023-05-07T10:15:58;24.40;96.20
21906;DHT22;11117;48.644;9.006;2023-05-07T10:18:24;24.60;95.70
21906;DHT22;11117;48.644;9.006;2023-05-07T10:20:51;24.70;96.00
21906;DHT22;11117;48.644;9.006;2023-05-07T10:23:22;24.90;95.90
21906;DHT22;11117;48.644;9.006;2023-05-07T10:25:48;25.20;95.40
21906;DHT22;11117;48.644;9.006;2023-05-07T10:28:15;25.60;95.60
21906;DHT22;11117;48.644;9.006;2023-05-07T10:33:25;25.40;94.80
21906;DHT22;11117;48.644;9.006;2023-05-07T10:35:58;25.40;95.10
21906;DHT22;11117;48.644;9.006;2023-05-07T10:38:25;25.40;95.00
21906;DHT22;11117;48.644;9.006;2023-05-07T10:40:51;25.50;95.10
21906;DHT22;11117;48.644;9.006;2023-05-07T10:43:17;25.60;94.80
21906;DHT22;11117;48.644;9.006;2023-05-07T10:45:42;25.80;93.80
21906;DHT22;11117;48.644;9.006;2023-05-07T10:50:34;26.30;93.20
21906;DHT22;11117;48.644;9.006;2023-05-07T10:55:48;26.20;93.50
21906;DHT22;11117;48.644;9.006;2023-05-07T10:58:29;26.10;93.80
21906;DHT22;11117;48.644;9.006;2023-05-07T11:00:59;26.40;93.00
21906;DHT22;11117;48.644;9.006;2023-05-07T11:03:26;26.50;93.00
21906;DHT22;11117;48.644;9.006;2023-05-07T11:06:11;26.70;93.00
21906;DHT22;11117;48.644;9.006;2023-05-07T11:08:53;27.00;92.10
21906;DHT22;11117;48.644;9.006;2023-05-07T11:11:19;27.10;91.30
21906;DHT22;11117;48.644;9.006;2023-05-07T11:13:45;27.20;91.70
21906;DHT22;11117;48.644;9.006;2023-05-07T11:16:23;27.40;90.70
21906;DHT22;11117;48.644;9.006;2023-05-07T11:18:51;27.50;90.30
21906;DHT22;11117;48.644;9.006;2023-05-07T11:21:46;27.50;90.90
21906;DHT22;11117;48.644;9.006;2023-05-07T11:24:12;27.30;90.30
21906;DHT22;11117;48.644;9.006;2023-05-07T11:26:49;27.20;89.90
21906;DHT22;11117;48.644;9.006;2023-05-07T11:29:19;27.00;91.00
21906;DHT22;11117;48.644;9.006;2023-05-07T11:31:53;27.10;90.90
21906;DHT22;11117;48.644;9.006;2023-05-07T11:34:23;27.00;90.70
21906;DHT22;11117;48.644;9.006;2023-05-07T11:36:49;26.90;90.40
21906;DHT22;11117;48.644;9.006;2023-05-07T11:39:32;26.50;91.70
21906;DHT22;11117;48.644;9.006;2023-05-07T11:41:58;26.30;92.20
21906;DHT22;11117;48.644;9.006;2023-05-07T11:44:23;26.20;91.90
21906;DHT22;11117;48.644;9.006;2023-05-07T11:46:49;26.00;91.10
21906;DHT22;11117;48.644;9.006;2023-05-07T11:49:15;25.70;90.70
21906;DHT22;11117;48.644;9.006;2023-05-07T11:51:40;25.40;91.00
21906;DHT22;11117;48.644;9.006;2023-05-07T11:54:06;24.90;92.90
21906;DHT22;11117;48.644;9.006;2023-05-07T11:56:34;24.30;94.30
21906;DHT22;11117;48.644;9.006;2023-05-07T11:59:00;23.50;95.60
21906;DHT22;11117;48.644;9.006;2023-05-07T12:01:25;22.90;98.10
21906;DHT22;11117;48.644;9.006;2023-05-07T12:03:51;22.40;98.70
21906;DHT22;11117;48.644;9.006;2023-05-07T12:06:17;21.90;99.90
21906;DHT22;11117;48.644;9.006;2023-05-07T12:08:44;21.60;99.90
21906;DHT22;11117;48.644;9.006;2023-05-07T12:11:22;20.80;99.90
21906;DHT22;11117;48.644;9.006;2023-05-07T12:13:48;20.40;99.90
21906;DHT22;11117;48.644;9.006;2023-05-07T12:16:14;19.50;99.90
21906;DHT22;11117;48.644;9.006;2023-05-07T12:18:40;18.30;99.90
21906;DHT22;11117;48.644;9.006;2023-05-07T12:21:07;17.60;99.90
21906;DHT22;11117;48.644;9.006;2023-05-07T12:23:34;17.40;99.90
21906;DHT22;11117;48.644;9.006;2023-05-07T12:26:00;17.30;99.90
21906;DHT22;11117;48.644;9.006;2023-05-07T12:28:26;17.40;99.90
21906;DHT22;11117;48.644;9.006;2023-05-07T12:30:51;17.40;99.90
21906;DHT22;11117;48.644;9.006;2023-05-07T12:33:19;17.40;99.90
21906;DHT22;11117;48.644;9.006;2023-05-07T12:35:44;17.40;99.90
21906;DHT22;11117;48.644;9.006;2023-05-07T12:38:14;17.40;99.90
21906;DHT22;11117;48.644;9.006;2023-05-07T12:40:41;17.40;99.90
21906;DHT22;11117;48.644;9.006;2023-05-07T12:43:07;17.40;99.90
21906;DHT22;11117;48.644;9.006;2023-05-07T12:45:41;17.30;99.90
21906;DHT22;11117;48.644;9.006;2023-05-07T12:48:06;17.30;99.90
21906;DHT22;11117;48.644;9.006;2023-05-07T12:50:34;17.20;99.90
21906;DHT22;11117;48.644;9.006;2023-05-07T12:53:00;17.10;99.90
21906;DHT22;11117;48.644;9.006;2023-05-07T12:55:28;16.90;99.90
21906;DHT22;11117;48.644;9.006;2023-05-07T12:57:54;16.80;99.90
21906;DHT22;11117;48.644;9.006;2023-05-07T13:00:36;16.70;99.90
21906;DHT22;11117;48.644;9.006;2023-05-07T13:03:02;16.70;99.90
21906;DHT22;11117;48.644;9.006;2023-05-07T13:05:28;16.50;99.90
21906;DHT22;11117;48.644;9.006;2023-05-07T13:07:55;15.80;99.90
21906;DHT22;11117;48.644;9.006;2023-05-07T13:10:22;15.20;99.90
21906;DHT22;11117;48.644;9.006;2023-05-07T13:12:47;14.90;99.90
21906;DHT22;11117;48.644;9.006;2023-05-07T13:15:13;14.90;99.90
21906;DHT22;11117;48.644;9.006;2023-05-07T13:17:39;14.90;99.90
21906;DHT22;11117;48.644;9.006;2023-05-07T13:20:04;14.70;99.90
21906;DHT22;11117;48.644;9.006;2023-05-07T13:22:30;14.60;99.90
21906;DHT22;11117;48.644;9.006;2023-05-07T13:24:56;14.60;99.90
21906;DHT22;11117;48.644;9.006;2023-05-07T13:27:21;14.40;99.90
21906;DHT22;11117;48.644;9.006;2023-05-07T13:29:47;14.20;99.90
21906;DHT22;11117;48.644;9.006;2023-05-07T13:32:12;14.30;99.90
21906;DHT22;11117;48.644;9.006;2023-05-07T13:34:38;14.50;99.90
21906;DHT22;11117;48.644;9.006;2023-05-07T13:37:03;14.70;99.90
21906;DHT22;11117;48.644;9.006;2023-05-07T13:39:29;14.70;99.90
21906;DHT22;11117;48.644;9.006;2023-05-07T13:41:54;14.60;99.90
21906;DHT22;11117;48.644;9.006;2023-05-07T13:44:22;14.60;99.90
21906;DHT22;11117;48.644;9.006;2023-05-07T13:46:48;14.70;99.90
21906;DHT22;11117;48.644;9.006;2023-05-07T13:49:13;14.70;99.90
21906;DHT22;11117;48.644;9.006;2023-05-07T13:51:39;14.80;99.90
21906;DHT22;11117;48.644;9.006;2023-05-07T13:54:04;14.90;99.90
21906;DHT22;11117;48.644;9.006;2023-05-07T13:56:30;14.90;99.90
21906;DHT22;11117;48.644;9.006;2023-05-07T13:58:56;15.00;99.90
21906;DHT22;11117;48.644;9.006;2023-05-07T14:01:21;15.10;99.90
21906;DHT22;11117;48.644;9.006;2023-05-07T14:03:47;15.20;99.90
21906;DHT22;11117;48.644;9.006;2023-05-07T14:06:14;15.30;99.90
21906;DHT22;11117;48.644;9.006;2023-05-07T14:08:40;15.40;99.90
21906;DHT22;11117;48.644;9.006;2023-05-07T14:11:05;15.60;99.90
21906;DHT22;11117;48.644;9.006;2023-05-07T14:13:31;15.70;99.90
21906;DHT22;11117;48.644;9.006;2023-05-07T14:15:57;15.70;99.90
21906;DHT22;11117;48.644;9.006;2023-05-07T14:18:22;15.80;99.90
21906;DHT22;11117;48.644;9.006;2023-05-07T14:20:48;15.80;99.90
21906;DHT22;11117;48.644;9.006;2023-05-07T14:23:14;15.80;99.90
21906;DHT22;11117;48.644;9.006;2023-05-07T14:25:39;15.70;99.90
21906;DHT22;11117;48.644;9.006;2023-05-07T14:28:05;15.80;99.90
21906;DHT22;11117;48.644;9.006;2023-05-07T14:30:31;15.70;99.90
21906;DHT22;11117;48.644;9.006;2023-05-07T14:32:56;15.80;99.90
21906;DHT22;11117;48.644;9.006;2023-05-07T14:35:22;15.90;99.90
21906;DHT22;11117;48.644;9.006;2023-05-07T14:37:47;15.90;99.90
21906;DHT22;11117;48.644;9.006;2023-05-07T14:40:13;16.00;99.90
21906;DHT22;11117;48.644;9.006;2023-05-07T14:42:38;16.00;99.90
21906;DHT22;11117;48.644;9.006;2023-05-07T14:45:04;16.00;99.90
21906;DHT22;11117;48.644;9.006;2023-05-07T14:47:30;16.00;99.90
21906;DHT22;11117;48.644;9.006;2023-05-07T14:49:55;16.00;99.90
21906;DHT22;11117;48.644;9.006;2023-05-07T14:52:21;16.00;99.90
21906;DHT22;11117;48.644;9.006;2023-05-07T14:54:46;16.10;99.90
21906;DHT22;11117;48.644;9.006;2023-05-07T14:57:13;16.10;99.90
21906;DHT22;11117;48.644;9.006;2023-05-07T14:59:39;16.20;99.90
21906;DHT22;11117;48.644;9.006;2023-05-07T15:02:06;16.30;99.90
21906;DHT22;11117;48.644;9.006;2023-05-07T15:04:31;16.30;99.90
21906;DHT22;11117;48.644;9.006;2023-05-07T15:06:57;16.40;99.90
21906;DHT22;11117;48.644;9.006;2023-05-07T15:09:22;16.40;99.90
21906;DHT22;11117;48.644;9.006;2023-05-07T15:11:48;16.50;99.90
21906;DHT22;11117;48.644;9.006;2023-05-07T15:14:13;16.50;99.90
21906;DHT22;11117;48.644;9.006;2023-05-07T15:16:39;16.60;99.90
21906;DHT22;11117;48.644;9.006;2023-05-07T15:19:04;16.60;99.90
21906;DHT22;11117;48.644;9.006;2023-05-07T15:21:30;16.60;99.90
21906;DHT22;11117;48.644;9.006;2023-05-07T15:23:55;16.60;99.90
21906;DHT22;11117;48.644;9.006;2023-05-07T15:26:21;16.70;99.90
21906;DHT22;11117;48.644;9.006;2023-05-07T15:28:47;16.60;99.90
21906;DHT22;11117;48.644;9.006;2023-05-07T15:31:15;16.60;99.90
21906;DHT22;11117;48.644;9.006;2023-05-07T15:33:41;16.80;99.90